TimeCST,TemperatureF,Dew PointF,Humidity,Sea Level PressureIn,VisibilityMPH,Wind Direction,Wind SpeedMPH,Gust SpeedMPH,PrecipitationIn,Events,Conditions,WindDirDegrees,DateUTC
12:53 AM,32.0,30.0,92,30.05,10.0,Calm,Calm,-,N/A,,Clear,0,2013-02-14 06:53:00
1:53 AM,30.0,28.0,92,30.04,9.0,Calm,Calm,-,N/A,,Clear,0,2013-02-14 07:53:00
2:53 AM,28.9,27.0,92,30.03,10.0,Calm,Calm,-,N/A,,Clear,0,2013-02-14 08:53:00
3:53 AM,30.9,28.0,89,30.02,10.0,NE,4.6,-,N/A,,Clear,40,2013-02-14 09:53:00
4:53 AM,28.9,27.0,92,30.02,10.0,Calm,Calm,-,N/A,,Clear,0,2013-02-14 10:53:00
5:53 AM,28.0,26.1,92,30.03,10.0,Calm,Calm,-,N/A,,Clear,0,2013-02-14 11:53:00
6:53 AM,27.0,25.0,92,30.06,10.0,Calm,Calm,-,N/A,,Clear,0,2013-02-14 12:53:00
7:53 AM,28.0,26.1,92,30.08,10.0,Calm,Calm,-,N/A,,Clear,0,2013-02-14 13:53:00
8:53 AM,39.9,32.0,73,30.10,10.0,NE,5.8,-,N/A,,Clear,40,2013-02-14 14:53:00
9:53 AM,48.0,33.1,56,30.09,10.0,NE,3.5,-,N/A,,Clear,40,2013-02-14 15:53:00
10:27 AM,50.0,33.8,54,30.07,10.0,Calm,Calm,-,N/A,,Clear,0,2013-02-14 16:27:00
10:53 AM,54.0,35.1,49,30.09,10.0,ENE,3.5,-,N/A,,Clear,70,2013-02-14 16:53:00
11:53 AM,60.1,35.1,39,30.07,10.0,NE,6.9,-,N/A,,Clear,40,2013-02-14 17:53:00
1:53 PM,64.0,30.9,29,30.02,10.0,NE,8.1,-,N/A,,Clear,40,2013-02-14 19:53:00
2:53 PM,64.0,27.0,25,30.00,10.0,Calm,Calm,-,N/A,,Clear,0,2013-02-14 20:53:00
3:53 PM,66.0,28.9,25,30.00,10.0,ENE,3.5,-,N/A,,Clear,70,2013-02-14 21:53:00
4:53 PM,64.0,28.0,26,30.01,10.0,ENE,4.6,-,N/A,,Clear,70,2013-02-14 22:53:00
5:53 PM,60.1,33.1,36,30.03,10.0,NNE,11.5,18.4,N/A,,Clear,30,2013-02-14 23:53:00
6:53 PM,54.0,37.0,53,30.08,10.0,NNE,17.3,-,N/A,,Clear,20,2013-02-15 00:53:00
7:53 PM,51.1,37.0,59,30.11,10.0,NNE,20.7,-,N/A,,Clear,20,2013-02-15 01:53:00
8:53 PM,50.0,35.1,57,30.12,10.0,NNE,23.0,31.1,N/A,,Clear,20,2013-02-15 02:53:00
9:53 PM,50.0,33.1,52,30.14,10.0,NNE,20.7,32.2,N/A,,Partly Cloudy,20,2013-02-15 03:53:00
10:53 PM,48.9,33.1,54,30.17,10.0,North,28.8,40.3,N/A,,Overcast,10,2013-02-15 04:53:00
11:53 PM,46.0,35.1,66,30.21,10.0,North,25.3,32.2,N/A,,Overcast,10,2013-02-15 05:53:00